Time;durP1;ratioP1;P1;durP2;ratioP2;P2;SDS_P1;SDS_P2;PMS_P1;PMS_P2;Temp;Humidity;BMP_temperature;BMP_pressure;BME280_temperature;BME280_humidity;BME280_pressure;Samples;Min_cycle;Max_cycle;Signal;HPM_P1;HPM_P2
2022/01/28 00:02:44;;;;;;;3.30;2.45;;;;;;;3.04;66.68;99341.78;5085126;28;20082;-69
2022/01/28 00:05:19;;;;;;;2.83;2.17;;;;;;;3.31;67.40;99376.88;5085325;28;20041;-69
2022/01/28 00:07:53;;;;;;;4.30;2.45;;;;;;;3.31;67.60;99369.88;5084313;28;20116;-68
2022/01/28 00:10:28;;;;;;;3.50;2.30;;;;;;;3.36;67.04;99369.78;5086813;28;20036;-69
2022/01/28 00:38:30;;;;;;;3.53;2.60;;;;;;;3.46;67.70;99407.94;5102678;28;20040;-68
2022/01/28 00:41:03;;;;;;;3.90;2.50;;;;;;;2.61;67.25;99316.63;5102359;28;20303;-66
2022/01/28 00:43:35;;;;;;;3.50;2.53;;;;;;;3.50;67.48;99420.91;5102727;28;20040;-69
2022/01/28 00:46:08;;;;;;;2.85;2.10;;;;;;;3.53;66.96;99404.25;5102988;28;20070;-68
2022/01/28 00:48:41;;;;;;;3.05;2.28;;;;;;;3.53;67.21;99420.84;5101837;28;20051;-69
2022/01/28 00:51:14;;;;;;;2.95;2.20;;;;;;;3.26;66.73;99356.03;5102521;28;20052;-70
2022/01/28 00:53:47;;;;;;;4.03;2.58;;;;;;;3.56;67.18;99409.41;5101885;28;20102;-68
2022/01/28 00:56:19;;;;;;;3.72;2.10;;;;;;;3.53;67.57;99407.75;5102658;28;20047;-68
2022/01/28 00:58:51;;;;;;;3.30;2.33;;;;;;;3.53;67.45;99399.00;5102389;28;20040;-68
2022/01/28 01:01:24;;;;;;;2.85;2.03;;;;;;;3.55;67.40;99385.88;5102359;28;20043;-68
2022/01/28 01:03:56;;;;;;;3.75;2.50;;;;;;;3.55;67.18;99381.50;5102563;28;20048;-68
2022/01/28 01:06:31;;;;;;;3.22;2.00;;;;;;;3.51;67.53;99400.81;5102508;28;20036;-68
2022/01/28 01:09:04;;;;;;;3.58;2.30;;;;;;;3.46;67.92;99398.31;5102220;28;20047;-68
2022/01/28 01:11:39;;;;;;;2.60;1.80;;;;;;;3.46;68.30;99390.44;5102215;28;20204;-68
2022/01/28 01:14:12;;;;;;;3.60;2.33;;;;;;;3.44;67.95;99383.53;5118351;28;20040;-68
2022/01/28 01:16:59;;;;;;;2.50;1.88;;;;;;;3.42;67.94;99387.94;5101489;28;20063;-67
2022/01/28 01:19:37;;;;;;;4.22;2.17;;;;;;;2.46;67.91;99256.84;5118140;28;20114;-68
2022/01/28 01:22:12;;;;;;;3.13;2.05;;;;;;;3.42;67.85;99414.16;5102607;28;20036;-67
2022/01/28 01:24:50;;;;;;;2.95;2.00;;;;;;;3.38;68.05;99410.75;5102241;28;20085;-68
2022/01/28 01:27:22;;;;;;;3.33;1.85;;;;;;;3.43;67.27;99408.88;5101229;28;20044;-68
2022/01/28 01:29:55;;;;;;;3.13;2.13;;;;;;;3.15;66.57;99352.84;5088253;28;20040;-69
2022/01/28 01:32:27;;;;;;;3.25;1.90;;;;;;;3.46;67.00;99423.66;5088417;28;20040;-68
2022/01/28 01:35:00;;;;;;;3.28;2.05;;;;;;;3.17;67.37;99390.31;5088232;28;20304;-68
2022/01/28 01:37:33;;;;;;;3.85;2.20;;;;;;;3.46;67.19;99418.41;5087169;28;20040;-68
2022/01/28 01:40:07;;;;;;;2.63;1.90;;;;;;;3.47;66.59;99446.34;5088081;28;20040;-68
2022/01/28 01:42:47;;;;;;;3.28;2.10;;;;;;;3.49;66.68;99442.78;5087204;28;20040;-68
2022/01/28 01:53:50;;;;;;;3.38;2.20;;;;;;;3.45;67.56;99462.09;5087750;28;20041;-69
2022/01/28 01:56:23;;;;;;;4.45;2.22;;;;;;;3.43;68.12;99440.31;5087802;28;20047;-68
2022/01/28 01:58:58;;;;;;;3.45;2.63;;;;;;;3.43;68.25;99452.56;5087913;28;20051;-68
2022/01/28 02:01:30;;;;;;;3.28;2.20;;;;;;;3.41;68.54;99454.34;5087419;28;20044;-68
2022/01/28 02:04:03;;;;;;;2.92;2.22;;;;;;;3.40;68.28;99447.38;5087980;28;20045;-68
2022/01/28 02:06:40;;;;;;;3.15;2.10;;;;;;;2.37;68.10;99281.44;5086872;28;20044;-69
2022/01/28 02:09:13;;;;;;;3.35;2.22;;;;;;;3.37;68.54;99429.97;5087585;28;20052;-68
2022/01/28 02:11:46;;;;;;;3.75;2.42;;;;;;;3.37;67.88;99413.41;5087502;28;20036;-68
2022/01/28 02:14:20;;;;;;;3.53;2.58;;;;;;;2.95;68.20;99348.09;5087384;28;20078;-69
2022/01/28 02:16:52;;;;;;;3.37;2.17;;;;;;;3.28;68.56;99417.13;5087389;28;20060;-69
2022/01/28 02:19:24;;;;;;;3.65;2.28;;;;;;;2.41;68.25;99288.34;5087493;28;20036;-68
2022/01/28 02:21:58;;;;;;;2.92;2.00;;;;;;;3.29;67.84;99413.59;5087265;28;20243;-68
2022/01/28 02:24:35;;;;;;;2.90;2.13;;;;;;;3.29;68.12;99400.50;5087133;28;20040;-69
2022/01/28 02:27:09;;;;;;;4.43;2.40;;;;;;;3.29;67.78;99431.94;5087148;28;20086;-69
2022/01/28 02:29:43;;;;;;;3.42;2.22;;;;;;;3.29;67.62;99425.84;5087143;28;20036;-68
2022/01/28 02:32:15;;;;;;;3.05;1.90;;;;;;;3.28;67.32;99429.34;5086986;28;20186;-69
2022/01/28 02:34:48;;;;;;;3.05;2.10;;;;;;;2.99;67.80;99396.88;5086448;28;20040;-69
2022/01/28 02:37:22;;;;;;;2.72;1.90;;;;;;;2.66;67.57;99321.75;5086093;28;20040;-68
2022/01/28 02:39:54;;;;;;;2.72;2.17;;;;;;;3.24;67.89;99449.53;5086543;28;20235;-69
2022/01/28 02:42:43;;;;;;;3.10;2.22;;;;;;;3.24;67.68;99440.81;5086625;28;20242;-68
2022/01/28 02:45:23;;;;;;;3.00;2.00;;;;;;;3.25;67.58;99463.47;5086993;28;20033;-69
2022/01/28 02:48:00;;;;;;;2.72;1.90;;;;;;;3.26;67.23;99449.47;5086735;28;20093;-68
2022/01/28 02:50:40;;;;;;;3.78;2.30;;;;;;;3.25;67.27;99456.47;5086675;28;20296;-68
2022/01/28 02:53:22;;;;;;;3.15;2.25;;;;;;;3.26;67.42;99463.44;5103002;28;20040;-69
2022/01/28 02:55:59;;;;;;;3.05;2.13;;;;;;;2.66;67.53;99356.66;5086572;28;20107;-69
2022/01/28 02:58:31;;;;;;;2.83;2.03;;;;;;;3.01;67.22;99430.88;5086695;28;20040;-69
2022/01/28 03:01:03;;;;;;;4.00;2.40;;;;;;;3.25;67.75;99476.56;5085649;28;20044;-69
2022/01/28 03:03:36;;;;;;;3.00;1.88;;;;;;;3.28;67.24;99456.41;5086648;28;20041;-68
2022/01/28 03:06:08;;;;;;;3.15;2.30;;;;;;;3.27;67.69;99480.88;5086627;28;20089;-68
2022/01/28 03:08:48;;;;;;;3.90;2.60;;;;;;;3.26;67.81;99475.69;5086586;28;20044;-68
2022/01/28 03:11:44;;;;;;;2.60;1.90;;;;;;;3.26;67.67;99487.00;5085687;28;20086;-68
2022/01/28 03:14:21;;;;;;;3.03;2.35;;;;;;;3.23;68.05;99494.94;5086186;28;20238;-69
2022/01/28 03:19:50;;;;;;;3.47;2.40;;;;;;;3.21;68.32;99491.50;5102094;28;20181;-69
2022/01/28 03:22:25;;;;;;;3.38;2.47;;;;;;;2.96;68.26;99430.97;5101507;28;20200;-68
2022/01/28 03:24:59;;;;;;;3.45;2.33;;;;;;;2.91;68.52;99463.41;5086258;28;20043;-68
2022/01/28 03:27:46;;;;;;;4.45;2.22;;;;;;;2.63;67.81;99375.03;5085503;28;20051;-69
2022/01/28 03:30:15;;;;;;;3.88;3.33;;;;;;;3.16;68.46;99478.50;5085839;28;20040;-68
2022/01/28 03:32:46;;;;;;;2.92;2.25;;;;;;;3.15;68.34;99492.50;5086069;28;20103;-68
2022/01/28 03:35:17;;;;;;;3.22;2.50;;;;;;;3.17;68.15;99480.22;5086106;28;20104;-68
2022/01/28 03:37:46;;;;;;;3.13;2.30;;;;;;;3.17;68.15;99482.00;5086482;28;20040;-69
2022/01/28 03:40:20;;;;;;;3.67;2.70;;;;;;;3.14;68.66;99471.59;5085144;28;20123;-68
2022/01/28 03:42:51;;;;;;;3.00;2.17;;;;;;;3.15;68.59;99482.03;5085998;28;20040;-68
2022/01/28 03:45:21;;;;;;;4.38;3.13;;;;;;;3.17;68.16;99490.72;5084998;28;20223;-68
2022/01/28 03:47:51;;;;;;;3.30;2.58;;;;;;;3.18;68.47;99475.84;5085998;28;20040;-68
2022/01/28 03:50:21;;;;;;;3.08;2.25;;;;;;;3.18;68.40;99492.44;5085883;28;20029;-68
2022/01/28 03:52:51;;;;;;;4.28;2.20;;;;;;;3.19;68.15;99488.91;5085676;28;20050;-68
2022/01/28 03:55:23;;;;;;;2.83;2.42;;;;;;;3.18;68.29;99499.44;5085543;28;20323;-68
2022/01/28 03:57:52;;;;;;;3.22;2.17;;;;;;;3.18;68.12;99508.16;5085470;28;20293;-68
2022/01/28 04:00:26;;;;;;;3.08;2.55;;;;;;;2.96;67.32;99448.44;5085520;28;20296;-68
2022/01/28 04:03:07;;;;;;;3.08;2.28;;;;;;;3.24;67.40;99509.75;5084715;28;20040;-68
2022/01/28 04:11:33;;;;;;;3.45;2.20;;;;;;;3.23;67.25;99499.31;5082653;28;20057;-68
2022/01/28 04:14:09;;;;;;;3.67;2.53;;;;;;;3.25;66.98;99502.75;5101465;28;20311;-68
2022/01/28 04:19:31;;;;;;;3.63;2.63;;;;;;;3.27;66.76;99514.94;5085595;28;20049;-68
2022/01/28 04:22:04;;;;;;;4.85;2.63;;;;;;;3.28;66.64;99508.78;5084712;28;20040;-68
2022/01/28 04:24:36;;;;;;;3.38;2.50;;;;;;;3.29;66.89;99515.75;5084651;28;20041;-68
2022/01/28 04:27:10;;;;;;;3.55;2.80;;;;;;;3.31;66.52;99510.47;5085428;28;20102;-68
2022/01/28 04:29:42;;;;;;;3.58;2.65;;;;;;;3.30;66.42;99514.00;5085178;28;20040;-68
2022/01/28 04:32:14;;;;;;;3.40;2.50;;;;;;;3.28;66.36;99521.91;5085377;28;20040;-68
2022/01/28 04:34:46;;;;;;;4.65;3.00;;;;;;;3.31;66.18;99528.81;5084613;28;20060;-68
2022/01/28 04:37:27;;;;;;;3.40;2.05;;;;;;;3.32;65.91;99515.69;5084993;28;20051;-68
2022/01/28 04:40:07;;;;;;;3.35;2.53;;;;;;;3.32;66.03;99515.69;5084934;28;20044;-69
2022/01/28 04:43:02;;;;;;;4.03;2.30;;;;;;;3.34;65.67;99527.00;5085052;28;20044;-68
2022/01/28 04:45:43;;;;;;;3.58;2.30;;;;;;;3.35;65.41;99513.00;5085010;28;20040;-69
2022/01/28 04:48:24;;;;;;;4.05;2.13;;;;;;;3.38;65.34;99502.44;5084201;28;20086;-68
2022/01/28 04:51:10;;;;;;;3.20;2.50;;;;;;;3.41;65.23;99502.38;5085212;28;20090;-68
2022/01/28 04:53:55;;;;;;;3.47;2.40;;;;;;;3.43;65.11;99492.72;5084883;28;20082;-68
2022/01/28 04:56:43;;;;;;;3.00;2.43;;;;;;;3.44;65.27;99490.94;5084113;28;20041;-68
2022/01/28 05:02:20;;;;;;;3.20;2.50;;;;;;;3.20;64.97;99471.44;5085086;28;20044;-68
2022/01/28 05:10:58;;;;;;;4.55;3.38;;;;;;;3.51;65.11;99495.16;5088643;28;20044;-68
2022/01/28 05:13:59;;;;;;;3.75;2.78;;;;;;;3.13;65.20;99436.69;5087746;28;20040;-68
2022/01/28 05:25:47;;;;;;;4.45;3.13;;;;;;;3.39;65.87;99501.53;5027086;28;20060;-68
2022/01/28 05:28:23;;;;;;;3.72;2.83;;;;;;;3.42;65.75;99505.84;5027367;28;20298;-68
2022/01/28 05:30:55;;;;;;;3.45;2.72;;;;;;;3.40;65.75;99497.16;5069850;28;20064;-68
2022/01/28 05:33:28;;;;;;;5.05;3.33;;;;;;;3.41;65.77;99509.38;5088042;28;20040;-69
2022/01/28 05:36:01;;;;;;;4.22;3.30;;;;;;;3.08;65.68;99474.34;5088039;28;20041;-68
2022/01/28 05:38:33;;;;;;;5.00;2.78;;;;;;;3.38;65.44;99510.31;5088191;28;20083;-69
2022/01/28 05:41:05;;;;;;;3.50;2.80;;;;;;;3.37;65.50;99513.81;5087506;28;20040;-68
2022/01/28 05:43:37;;;;;;;4.05;2.97;;;;;;;3.34;65.70;99506.03;5087889;28;20044;-69
2022/01/28 05:46:10;;;;;;;3.53;2.60;;;;;;;3.36;65.30;99511.25;5087395;28;20037;-68
2022/01/28 05:48:43;;;;;;;4.05;2.97;;;;;;;3.08;65.35;99469.97;5088126;28;20044;-69
2022/01/28 05:51:15;;;;;;;3.40;2.70;;;;;;;3.42;65.09;99509.34;5088116;28;20086;-68
2022/01/28 05:53:47;;;;;;;5.18;2.80;;;;;;;3.40;65.04;99513.75;5087749;28;20036;-68
2022/01/28 05:56:20;;;;;;;4.05;2.75;;;;;;;3.43;65.06;99525.91;5086855;28;20293;-68
2022/01/28 05:58:52;;;;;;;4.18;2.65;;;;;;;3.11;65.03;99458.56;5087540;28;20037;-68
2022/01/28 06:01:24;;;;;;;4.35;3.03;;;;;;;3.36;65.06;99546.16;5087861;28;20086;-68
2022/01/28 06:03:58;;;;;;;3.72;2.90;;;;;;;3.04;65.00;99473.56;5087812;28;20041;-68
2022/01/28 06:06:31;;;;;;;4.53;2.90;;;;;;;3.32;64.63;99528.78;5086583;28;20243;-68
2022/01/28 06:09:04;;;;;;;4.90;2.88;;;;;;;3.35;64.31;99526.09;5087495;28;20048;-68
2022/01/28 06:11:37;;;;;;;3.60;2.72;;;;;;;3.04;64.19;99476.19;5087360;28;20045;-68
2022/01/28 06:14:09;;;;;;;4.57;2.85;;;;;;;3.03;64.12;99497.16;5087248;28;20044;-68
2022/01/28 06:16:42;;;;;;;3.60;2.60;;;;;;;3.00;64.04;99481.50;5087122;28;20122;-68
2022/01/28 06:19:15;;;;;;;3.75;2.53;;;;;;;3.26;63.92;99549.88;5087144;28;20040;-68
2022/01/28 06:21:47;;;;;;;5.28;2.53;;;;;;;2.94;63.78;99492.13;5087421;28;20059;-68
2022/01/28 06:24:20;;;;;;;3.83;2.78;;;;;;;3.25;63.82;99557.78;5086355;28;20036;-68
2022/01/28 06:26:52;;;;;;;5.07;3.10;;;;;;;3.25;63.89;99568.25;5087123;28;20094;-68
2022/01/28 06:29:24;;;;;;;3.50;2.72;;;;;;;3.17;64.31;99564.03;5087245;28;20292;-68
2022/01/28 06:31:56;;;;;;;4.90;3.35;;;;;;;3.19;64.43;99564.88;5086912;28;20292;-68
2022/01/28 06:34:30;;;;;;;3.75;3.03;;;;;;;3.21;64.64;99564.84;5087218;28;20045;-68
2022/01/28 06:37:02;;;;;;;4.25;3.08;;;;;;;3.19;64.93;99566.63;5085964;28;20037;-68
2022/01/28 06:39:34;;;;;;;3.75;3.00;;;;;;;3.13;65.32;99554.53;5086945;28;20247;-68
2022/01/28 06:42:07;;;;;;;4.30;2.85;;;;;;;3.13;65.46;99554.53;5086999;28;20040;-69
2022/01/28 06:44:39;;;;;;;4.07;2.67;;;;;;;3.14;65.23;99552.78;5086577;28;20239;-68
2022/01/28 06:47:12;;;;;;;3.80;2.50;;;;;;;3.10;65.15;99551.13;5086855;28;20086;-68
2022/01/28 06:49:45;;;;;;;4.28;2.90;;;;;;;3.10;65.04;99548.50;5085725;28;20300;-68
2022/01/28 06:52:18;;;;;;;3.53;2.42;;;;;;;2.76;65.29;99477.69;5085627;28;20048;-68
2022/01/28 06:54:50;;;;;;;2.97;2.20;;;;;;;3.08;65.04;99538.06;5086397;28;20045;-68
2022/01/28 06:57:22;;;;;;;3.20;2.10;;;;;;;2.76;65.25;99486.41;5086608;28;20334;-68
2022/01/28 06:59:54;;;;;;;3.13;2.15;;;;;;;3.05;65.05;99556.44;5085768;28;20296;-68
2022/01/28 07:02:27;;;;;;;4.65;2.17;;;;;;;3.11;64.91;99534.50;5086480;28;20044;-68
2022/01/28 07:05:00;;;;;;;1.92;1.42;;;;;;;3.11;65.05;99539.75;5086360;28;20040;-68
2022/01/28 07:07:33;;;;;;;2.45;1.80;;;;;;;3.11;65.43;99537.13;5086293;28;20291;-68
2022/01/28 07:10:06;;;;;;;3.28;2.10;;;;;;;2.82;65.58;99481.03;5086600;28;20048;-69
2022/01/28 07:12:38;;;;;;;2.95;2.05;;;;;;;3.10;66.06;99543.25;5086453;28;20040;-69
2022/01/28 07:15:11;;;;;;;4.22;2.30;;;;;;;3.11;66.22;99535.38;5086138;28;20093;-69
2022/01/28 07:17:43;;;;;;;4.10;2.47;;;;;;;2.84;66.53;99486.22;5085916;28;20106;-68
2022/01/28 07:20:18;;;;;;;3.10;2.28;;;;;;;2.86;66.47;99476.59;5085242;28;20044;-69
2022/01/28 07:22:50;;;;;;;4.20;3.05;;;;;;;3.14;66.65;99516.09;5086343;28;20097;-68
2022/01/28 07:25:23;;;;;;;3.42;2.30;;;;;;;2.59;66.18;99436.19;5085190;28;20036;-68
2022/01/28 07:27:53;;;;;;;4.55;2.85;;;;;;;3.17;66.11;99524.75;5085703;28;20039;-68
2022/01/28 07:30:23;;;;;;;5.80;2.58;;;;;;;3.15;66.20;99523.06;5085881;28;20045;-69
2022/01/28 07:32:53;;;;;;;4.65;2.70;;;;;;;3.15;66.10;99536.16;5086160;28;20048;-68
2022/01/28 07:35:25;;;;;;;8.95;5.32;;;;;;;2.94;65.43;99492.97;5086194;28;20061;-68
2022/01/28 07:37:53;;;;;;;4.18;2.58;;;;;;;2.94;64.93;99513.06;5086148;28;20290;-68
2022/01/28 07:40:23;;;;;;;3.83;2.83;;;;;;;3.29;64.80;99530.63;5085819;28;20040;-68
2022/01/28 07:42:53;;;;;;;3.22;2.00;;;;;;;3.41;64.14;99540.81;5085241;28;20284;-68
2022/01/28 07:45:24;;;;;;;3.72;1.90;;;;;;;3.17;63.46;99475.00;5085892;28;20059;-68
2022/01/28 07:47:54;;;;;;;2.55;1.70;;;;;;;3.69;62.76;99543.63;5085898;28;20255;-68
2022/01/28 07:50:25;;;;;;;3.25;1.60;;;;;;;3.79;62.07;99547.75;5085616;28;20330;-68
2022/01/28 07:52:54;;;;;;;3.33;2.10;;;;;;;3.97;61.56;99557.78;5085968;28;20143;-68
2022/01/28 07:55:24;;;;;;;2.40;1.60;;;;;;;4.11;60.02;99552.19;5085814;28;20131;-68
2022/01/28 07:57:54;;;;;;;2.83;1.80;;;;;;;4.30;59.80;99566.59;5085643;28;20048;-68
2022/01/28 08:00:27;;;;;;;2.00;1.42;;;;;;;4.53;58.70;99571.22;5085402;28;20049;-69
2022/01/28 08:02:54;;;;;;;2.30;1.73;;;;;;;4.74;58.38;99565.38;5085548;28;20068;-69
2022/01/28 08:05:26;;;;;;;2.78;1.50;;;;;;;4.98;56.87;99576.13;5085420;28;20036;-68
2022/01/28 08:07:55;;;;;;;5.60;2.50;;;;;;;5.17;56.04;99600.94;5085420;28;20110;-69
2022/01/28 08:10:25;;;;;;;2.88;1.70;;;;;;;5.18;55.48;99601.81;5085546;28;20292;-68
2022/01/28 08:12:55;;;;;;;2.40;1.45;;;;;;;5.14;56.25;99595.78;5085541;28;20342;-69
2022/01/28 08:15:25;;;;;;;3.20;1.70;;;;;;;5.09;56.28;99602.94;5085242;28;20060;-69
2022/01/28 08:17:55;;;;;;;2.58;1.63;;;;;;;5.05;56.76;99619.69;5085008;28;20227;-69
2022/01/28 08:20:27;;;;;;;2.72;1.88;;;;;;;5.01;55.32;99613.66;5085195;28;20207;-68
2022/01/28 08:22:57;;;;;;;2.85;2.08;;;;;;;4.96;55.85;99628.69;5085491;28;20041;-68
2022/01/28 08:25:27;;;;;;;2.28;1.40;;;;;;;4.92;55.54;99626.19;5085075;28;20047;-69
2022/01/28 08:27:56;;;;;;;5.35;1.98;;;;;;;4.63;55.69;99593.69;5085275;28;20045;-68
2022/01/28 08:30:28;;;;;;;3.92;2.00;;;;;;;4.82;56.08;99650.03;5085350;28;20044;-69
2022/01/28 08:32:56;;;;;;;3.08;1.80;;;;;;;4.86;56.50;99653.44;5085346;28;20056;-68
2022/01/28 08:35:32;;;;;;;2.58;1.58;;;;;;;4.83;54.80;99661.41;5083919;28;20047;-69
2022/01/28 08:38:01;;;;;;;2.00;1.25;;;;;;;4.80;54.42;99699.13;5083913;28;20040;-68
2022/01/28 08:40:32;;;;;;;2.70;1.40;;;;;;;4.82;56.37;99699.06;5088855;28;20040;-69
2022/01/28 08:43:01;;;;;;;2.20;1.30;;;;;;;4.84;56.29;99696.41;5088905;28;20197;-69
2022/01/28 08:45:32;;;;;;;5.97;1.90;;;;;;;4.77;55.06;99683.44;5088205;28;20045;-69
2022/01/28 08:48:02;;;;;;;3.47;1.50;;;;;;;4.77;56.07;99700.97;5089003;28;20063;-69
2022/01/28 08:50:33;;;;;;;2.22;1.40;;;;;;;4.57;56.19;99666.50;5088810;28;20051;-68
2022/01/28 08:53:02;;;;;;;2.70;1.80;;;;;;;4.78;56.36;99695.66;5088853;28;20028;-68
2022/01/28 08:55:32;;;;;;;2.42;1.55;;;;;;;4.28;55.32;99633.97;5088832;28;20060;-68
2022/01/28 08:58:02;;;;;;;3.38;2.00;;;;;;;4.75;56.35;99710.66;5089002;28;20029;-69
2022/01/28 09:00:32;;;;;;;4.50;1.55;;;;;;;3.67;55.61;99600.47;5088328;28;20064;-69
2022/01/28 09:03:02;;;;;;;2.42;1.60;;;;;;;4.74;56.20;99717.66;5087632;28;20041;-69
2022/01/28 09:05:34;;;;;;;2.80;1.60;;;;;;;4.67;55.01;99723.09;5087833;28;20047;-69
2022/01/28 09:08:08;;;;;;;3.33;2.10;;;;;;;4.65;56.22;99730.16;5088949;28;20049;-69
2022/01/28 09:10:44;;;;;;;4.78;1.88;;;;;;;3.74;56.41;99588.94;5088208;28;20048;-68
2022/01/28 09:13:24;;;;;;;3.42;2.08;;;;;;;4.60;56.93;99753.91;5087798;28;20044;-69
2022/01/28 09:15:58;;;;;;;4.18;2.35;;;;;;;4.57;56.91;99753.97;5089342;28;20040;-69
2022/01/28 09:18:30;;;;;;;3.85;1.77;;;;;;;4.59;57.46;99762.69;5089190;28;20048;-69
2022/01/28 09:21:04;;;;;;;2.15;1.55;;;;;;;4.55;57.39;99750.53;5088622;28;20048;-69
2022/01/28 09:23:36;;;;;;;2.40;1.60;;;;;;;4.56;58.01;99777.63;5088580;28;20040;-69
2022/01/28 09:26:09;;;;;;;3.22;2.20;;;;;;;4.61;58.23;99788.91;5088957;28;20288;-69
2022/01/28 09:28:41;;;;;;;3.63;2.22;;;;;;;4.58;58.29;99789.84;5088651;28;20044;-69
2022/01/28 09:31:14;;;;;;;3.50;2.50;;;;;;;4.61;58.22;99775.78;5087182;28;20048;-69
2022/01/28 09:33:46;;;;;;;3.58;2.20;;;;;;;4.67;57.88;99786.97;5087579;28;20040;-69
2022/01/28 09:36:20;;;;;;;7.88;2.28;;;;;;;4.80;56.15;99780.53;5087927;28;20037;-69
2022/01/28 09:38:52;;;;;;;5.00;2.17;;;;;;;3.96;54.67;99654.84;5088172;28;20239;-69
2022/01/28 09:41:24;;;;;;;3.47;1.60;;;;;;;5.35;52.22;99780.88;5088139;28;20048;-69
2022/01/28 09:44:00;;;;;;;2.50;1.55;;;;;;;5.71;51.41;99752.69;5087984;28;20293;-69
2022/01/28 09:46:34;;;;;;;2.38;1.70;;;;;;;6.03;50.38;99768.41;5088089;28;20044;-69
2022/01/28 09:49:07;;;;;;;2.78;1.50;;;;;;;6.35;51.76;99767.41;5087534;28;20251;-69
2022/01/28 09:51:40;;;;;;;3.20;2.10;;;;;;;6.71;51.45;99752.19;5088096;28;20044;-69
2022/01/28 09:54:12;;;;;;;2.30;1.50;;;;;;;6.83;51.23;99752.72;5087757;28;20098;-69
2022/01/28 09:56:45;;;;;;;3.95;2.00;;;;;;;7.13;50.31;99746.41;5086937;28;20090;-69
2022/01/28 09:59:17;;;;;;;2.80;1.75;;;;;;;7.38;47.81;99747.28;5087728;28;20082;-69
2022/01/28 10:01:50;;;;;;;2.45;1.80;;;;;;;7.55;48.22;99767.78;5087724;28;20044;-69
2022/01/28 10:04:23;;;;;;;3.72;1.40;;;;;;;7.48;49.05;99752.22;5087932;28;20045;-69
2022/01/28 10:06:59;;;;;;;4.82;1.98;;;;;;;7.00;46.43;99714.34;5087825;28;20045;-68
2022/01/28 10:09:31;;;;;;;2.97;1.73;;;;;;;7.14;47.46;99720.91;5087512;28;20044;-69
2022/01/28 10:12:17;;;;;;;3.78;1.70;;;;;;;6.39;45.72;99591.78;5087486;28;20041;-69
2022/01/28 10:15:02;;;;;;;3.90;2.05;;;;;;;7.44;45.59;99724.25;5087749;28;20041;-69
2022/01/28 10:17:53;;;;;;;2.67;1.60;;;;;;;7.44;45.12;99700.50;5087202;28;20316;-69
2022/01/28 10:20:27;;;;;;;5.32;2.05;;;;;;;7.46;46.83;99712.72;5087129;28;20041;-69
2022/01/28 10:23:02;;;;;;;2.57;1.40;;;;;;;7.67;47.98;99711.06;5087432;28;20045;-69
2022/01/28 10:25:37;;;;;;;2.95;1.90;;;;;;;7.92;48.28;99685.47;5087049;28;20375;-69
2022/01/28 10:28:11;;;;;;;3.40;2.15;;;;;;;7.81;47.35;99650.72;5087316;28;20091;-69
2022/01/28 10:30:44;;;;;;;3.15;1.92;;;;;;;8.00;47.08;99693.09;5087002;28;20040;-69
2022/01/28 10:33:19;;;;;;;4.45;2.90;;;;;;;8.03;47.64;99717.56;5086801;28;20296;-69
2022/01/28 10:35:53;;;;;;;4.10;2.45;;;;;;;7.66;47.65;99677.69;5086783;28;20208;-69
2022/01/28 10:38:32;;;;;;;3.88;1.60;;;;;;;7.75;47.50;99693.16;5087122;28;20040;-68
2022/01/28 10:41:13;;;;;;;3.33;1.80;;;;;;;7.03;47.48;99610.59;5086718;28;20047;-69
2022/01/28 10:43:48;;;;;;;3.28;1.83;;;;;;;7.38;49.73;99693.69;5086384;28;20284;-69
2022/01/28 10:46:24;;;;;;;;;;;;;;;7.11;47.64;99707.84;5086827;28;20090;-69
2022/01/28 10:48:59;;;;;;;3.80;1.85;;;;;;;6.99;50.40;99704.72;5086689;28;19920;-69
2022/01/28 10:51:41;;;;;;;3.33;1.77;;;;;;;6.92;48.18;99703.22;5086627;28;20239;-69
2022/01/28 10:54:16;;;;;;;2.20;1.50;;;;;;;6.84;48.74;99713.16;5086120;28;20086;-69
2022/01/28 10:56:53;;;;;;;2.92;1.45;;;;;;;6.64;49.54;99716.44;5086807;28;20044;-69
2022/01/28 10:59:27;;;;;;;4.30;1.75;;;;;;;6.53;50.58;99704.53;5086646;28;20090;-69
2022/01/28 11:01:59;;;;;;;3.37;1.77;;;;;;;5.55;50.43;99562.97;5085514;28;20292;-69
2022/01/28 11:04:33;;;;;;;2.20;1.20;;;;;;;6.26;50.26;99729.97;5086575;28;20574;-69
2022/01/28 11:07:06;;;;;;;2.47;1.48;;;;;;;6.13;51.45;99726.00;5085417;28;20044;-69
2022/01/28 11:09:41;;;;;;;2.47;1.38;;;;;;;6.08;50.53;99721.75;5086101;28;20040;-69
2022/01/28 11:12:14;;;;;;;4.70;2.10;;;;;;;6.32;50.87;99711.34;5086007;28;20258;-68
2022/01/28 11:14:46;;;;;;;8.43;2.17;;;;;;;6.53;49.67;99721.19;5086410;28;20331;-69
2022/01/28 11:17:18;;;;;;;3.72;1.35;;;;;;;6.72;49.49;99717.03;5085815;28;20052;-69
2022/01/28 11:19:53;;;;;;;3.55;1.30;;;;;;;6.95;49.07;99718.91;5085869;28;20173;-69
2022/01/28 11:22:50;;;;;;;2.25;1.20;;;;;;;7.23;47.29;99705.63;5085738;28;20043;-69
2022/01/28 11:25:36;;;;;;;2.55;1.40;;;;;;;7.39;46.30;99695.41;5085348;28;20044;-69
2022/01/28 11:28:11;;;;;;;2.92;1.25;;;;;;;7.45;47.24;99673.22;5085789;28;20045;-69
2022/01/28 11:30:47;;;;;;;;;;;;;;;7.53;44.19;99684.34;5086445;28;20174;-69
2022/01/28 11:33:19;;;;;;;3.35;1.80;;;;;;;7.63;46.22;99701.56;5084868;28;20127;-69
2022/01/28 11:36:03;;;;;;;2.85;1.63;;;;;;;7.06;43.97;99611.34;5084924;28;20097;-69
2022/01/28 11:38:45;;;;;;;2.95;1.50;;;;;;;7.66;43.64;99717.25;5085876;28;20067;-68
2022/01/28 11:41:25;;;;;;;6.20;1.95;;;;;;;7.37;44.18;99674.38;5085012;28;20254;-69
2022/01/28 11:43:58;;;;;;;4.18;1.38;;;;;;;7.58;44.30;99691.19;5085869;28;20040;-69
2022/01/28 11:46:38;;;;;;;3.33;1.80;;;;;;;7.70;44.98;99695.13;5085806;28;20062;-69
2022/01/28 11:49:25;;;;;;;2.70;1.85;;;;;;;7.56;43.74;99710.59;5085656;28;20044;-69
2022/01/28 11:51:57;;;;;;;3.00;1.80;;;;;;;7.52;45.62;99711.63;5085007;28;20067;-69
2022/01/28 11:54:37;;;;;;;3.22;1.65;;;;;;;7.58;43.52;99745.69;5084648;28;20090;-68
2022/01/28 11:57:16;;;;;;;3.33;1.65;;;;;;;7.51;43.14;99725.75;5085776;28;20045;-68
2022/01/28 11:59:49;;;;;;;3.53;1.88;;;;;;;7.58;44.90;99738.66;5085706;28;20078;-68
2022/01/28 12:02:22;;;;;;;2.70;1.50;;;;;;;7.67;44.34;99732.19;5085476;28;20365;-69
2022/01/28 12:04:54;;;;;;;4.63;2.33;;;;;;;7.67;43.73;99733.03;5084263;28;20040;-69
2022/01/28 12:07:27;;;;;;;3.97;1.73;;;;;;;7.55;43.67;99737.91;5085600;28;20051;-69
2022/01/28 12:10:01;;;;;;;3.95;1.95;;;;;;;7.52;44.65;99754.69;5085117;28;20083;-68
2022/01/28 12:12:58;;;;;;;4.03;1.83;;;;;;;7.32;42.70;99741.34;5084919;28;20040;-69
2022/01/28 12:15:32;;;;;;;3.78;1.63;;;;;;;6.79;44.34;99701.88;5085045;28;20181;-68
2022/01/28 12:18:09;;;;;;;3.83;1.60;;;;;;;6.95;43.70;99754.94;5083973;28;20057;-69
2022/01/28 12:20:47;;;;;;;2.67;1.40;;;;;;;6.87;44.69;99747.28;5085225;28;20288;-68
2022/01/28 12:23:38;;;;;;;2.92;1.55;;;;;;;6.78;44.10;99747.56;5085151;28;20056;-68
2022/01/28 12:26:11;;;;;;;2.60;1.63;;;;;;;6.71;45.79;99756.59;5085008;28;20041;-68
2022/01/28 12:28:54;;;;;;;3.92;1.60;;;;;;;6.56;45.00;99755.31;5085455;28;20047;-68
2022/01/28 12:31:32;;;;;;;4.50;2.83;;;;;;;6.49;45.89;99769.59;5084627;28;20045;-68
2022/01/28 12:34:05;;;;;;;2.88;2.05;;;;;;;6.33;46.34;99768.34;5084619;28;20044;-68
2022/01/28 12:36:38;;;;;;;3.50;1.88;;;;;;;6.05;47.92;99708.69;5085157;28;20293;-68
2022/01/28 12:39:15;;;;;;;4.20;1.70;;;;;;;6.22;47.00;99757.31;5085221;28;20064;-68
2022/01/28 12:41:54;;;;;;;2.97;1.50;;;;;;;6.12;47.37;99763.75;5084923;28;20036;-69
2022/01/28 12:44:31;;;;;;;3.22;1.80;;;;;;;6.04;47.31;99778.00;5084647;28;20044;-69
2022/01/28 12:47:05;;;;;;;4.95;1.80;;;;;;;5.96;47.95;99751.06;5084305;28;20187;-69
2022/01/28 12:49:39;;;;;;;2.95;1.80;;;;;;;5.65;47.65;99737.97;5085256;28;20036;-68
2022/01/28 12:52:11;;;;;;;5.35;1.83;;;;;;;5.96;48.62;99773.88;5085342;28;20056;-69
2022/01/28 12:54:47;;;;;;;6.38;2.45;;;;;;;5.91;47.92;99770.53;5084941;28;20044;-68
2022/01/28 12:57:21;;;;;;;4.28;1.98;;;;;;;5.82;48.14;99782.19;5084444;28;20044;-69
2022/01/28 12:59:54;;;;;;;5.35;2.25;;;;;;;5.78;48.18;99780.53;5067183;28;20044;-69
2022/01/28 13:02:34;;;;;;;2.80;1.90;;;;;;;5.80;47.50;99786.63;5085027;28;20101;-68
2022/01/28 13:05:15;;;;;;;5.47;1.73;;;;;;;5.55;48.76;99746.16;5084843;28;20204;-68
2022/01/28 13:10:34;;;;;;;3.50;2.15;;;;;;;5.72;48.23;99831.56;5084719;28;20102;-68
2022/01/28 13:13:06;;;;;;;4.43;1.60;;;;;;;5.68;48.37;99777.31;5084791;28;20055;-68
2022/01/28 13:15:36;;;;;;;4.88;1.83;;;;;;;5.44;47.88;99726.28;5084793;28;20346;-69
2022/01/28 13:18:05;;;;;;;4.88;2.13;;;;;;;5.39;48.02;99748.34;5083703;28;20308;-69
2022/01/28 13:20:38;;;;;;;4.85;2.33;;;;;;;5.64;48.25;99774.81;5084894;28;20288;-69
2022/01/28 13:23:12;;;;;;;3.28;1.77;;;;;;;5.61;47.70;99780.16;5084511;28;20055;-69